<?xml version="1.0" encoding="UTF-8" standalone="no" ?>
<gpx xmlns="http://www.topografix.com/GPX/1/1" xmlns:xsi="http://www.w3.org/2001/XMLSchema-instance" xsi:schemaLocation="http://www.topografix.com/GPX/1/1 http://www.topografix.com/GPX/1/1/gpx.xsd" version="1.1" creator="VisuGPX - https://www.visugpx.com">
  <metadata>
    <name>promenade illuminée</name>
    <desc><![CDATA[promenade illuminée ]]></desc>
  </metadata>
  <trk>
    <name><![CDATA[Tracé 20 déc. 2013 17:55:08]]></name>
    <trkseg>
      <trkpt lat="49.2131" lon="6.87304">
        <ele>313</ele>
        <time>2013-12-20T16:55:08Z</time>
      </trkpt>
      <trkpt lat="49.21302" lon="6.87303">
        <ele>316</ele>
        <time>2013-12-20T16:56:22Z</time>
      </trkpt>
      <trkpt lat="49.21303" lon="6.8729">
        <ele>326</ele>
        <time>2013-12-20T17:01:37Z</time>
      </trkpt>
      <trkpt lat="49.21301" lon="6.87277">
        <ele>326</ele>
        <time>2013-12-20T17:04:13Z</time>
      </trkpt>
      <trkpt lat="49.21298" lon="6.87264">
        <ele>325</ele>
        <time>2013-12-20T17:04:25Z</time>
      </trkpt>
      <trkpt lat="49.21293" lon="6.87253">
        <ele>325</ele>
        <time>2013-12-20T17:04:33Z</time>
      </trkpt>
      <trkpt lat="49.21291" lon="6.87241">
        <ele>326</ele>
        <time>2013-12-20T17:04:40Z</time>
      </trkpt>
      <trkpt lat="49.2129" lon="6.87228">
        <ele>326</ele>
        <time>2013-12-20T17:04:48Z</time>
      </trkpt>
      <trkpt lat="49.21293" lon="6.87216">
        <ele>328</ele>
        <time>2013-12-20T17:04:54Z</time>
      </trkpt>
      <trkpt lat="49.21298" lon="6.87206">
        <ele>331</ele>
        <time>2013-12-20T17:05:02Z</time>
      </trkpt>
      <trkpt lat="49.21303" lon="6.87196">
        <ele>332</ele>
        <time>2013-12-20T17:05:11Z</time>
      </trkpt>
      <trkpt lat="49.21308" lon="6.87186">
        <ele>333</ele>
        <time>2013-12-20T17:05:19Z</time>
      </trkpt>
      <trkpt lat="49.21313" lon="6.87175">
        <ele>334</ele>
        <time>2013-12-20T17:05:27Z</time>
      </trkpt>
      <trkpt lat="49.21319" lon="6.87165">
        <ele>336</ele>
        <time>2013-12-20T17:05:35Z</time>
      </trkpt>
      <trkpt lat="49.21324" lon="6.87155">
        <ele>337</ele>
        <time>2013-12-20T17:05:44Z</time>
      </trkpt>
      <trkpt lat="49.2133" lon="6.87146">
        <ele>338</ele>
        <time>2013-12-20T17:05:53Z</time>
      </trkpt>
      <trkpt lat="49.21335" lon="6.87136">
        <ele>337</ele>
        <time>2013-12-20T17:06:01Z</time>
      </trkpt>
      <trkpt lat="49.2134" lon="6.87127">
        <ele>337</ele>
        <time>2013-12-20T17:06:09Z</time>
      </trkpt>
      <trkpt lat="49.21346" lon="6.87117">
        <ele>334</ele>
        <time>2013-12-20T17:06:19Z</time>
      </trkpt>
      <trkpt lat="49.21351" lon="6.87106">
        <ele>333</ele>
        <time>2013-12-20T17:06:28Z</time>
      </trkpt>
      <trkpt lat="49.21357" lon="6.87095">
        <ele>333</ele>
        <time>2013-12-20T17:06:37Z</time>
      </trkpt>
      <trkpt lat="49.21363" lon="6.87086">
        <ele>332</ele>
        <time>2013-12-20T17:06:46Z</time>
      </trkpt>
      <trkpt lat="49.21368" lon="6.87075">
        <ele>332</ele>
        <time>2013-12-20T17:06:54Z</time>
      </trkpt>
      <trkpt lat="49.21373" lon="6.87066">
        <ele>330</ele>
        <time>2013-12-20T17:07:02Z</time>
      </trkpt>
      <trkpt lat="49.21378" lon="6.87054">
        <ele>329</ele>
        <time>2013-12-20T17:07:11Z</time>
      </trkpt>
      <trkpt lat="49.21383" lon="6.87044">
        <ele>328</ele>
        <time>2013-12-20T17:07:21Z</time>
      </trkpt>
      <trkpt lat="49.21388" lon="6.87034">
        <ele>329</ele>
        <time>2013-12-20T17:07:28Z</time>
      </trkpt>
      <trkpt lat="49.21394" lon="6.87025">
        <ele>328</ele>
        <time>2013-12-20T17:07:36Z</time>
      </trkpt>
      <trkpt lat="49.214" lon="6.87016">
        <ele>328</ele>
        <time>2013-12-20T17:07:43Z</time>
      </trkpt>
      <trkpt lat="49.21406" lon="6.87008">
        <ele>330</ele>
        <time>2013-12-20T17:07:51Z</time>
      </trkpt>
      <trkpt lat="49.21414" lon="6.87002">
        <ele>334</ele>
        <time>2013-12-20T17:08:00Z</time>
      </trkpt>
      <trkpt lat="49.21422" lon="6.86998">
        <ele>333</ele>
        <time>2013-12-20T17:08:16Z</time>
      </trkpt>
      <trkpt lat="49.2143" lon="6.86991">
        <ele>337</ele>
        <time>2013-12-20T17:08:39Z</time>
      </trkpt>
      <trkpt lat="49.21437" lon="6.86984">
        <ele>340</ele>
        <time>2013-12-20T17:08:49Z</time>
      </trkpt>
      <trkpt lat="49.21446" lon="6.86982">
        <ele>341</ele>
        <time>2013-12-20T17:08:59Z</time>
      </trkpt>
      <trkpt lat="49.21454" lon="6.86977">
        <ele>342</ele>
        <time>2013-12-20T17:09:11Z</time>
      </trkpt>
      <trkpt lat="49.2146" lon="6.8697">
        <ele>345</ele>
        <time>2013-12-20T17:09:21Z</time>
      </trkpt>
      <trkpt lat="49.21469" lon="6.86966">
        <ele>347</ele>
        <time>2013-12-20T17:09:32Z</time>
      </trkpt>
      <trkpt lat="49.21477" lon="6.86969">
        <ele>347</ele>
        <time>2013-12-20T17:09:45Z</time>
      </trkpt>
      <trkpt lat="49.21484" lon="6.86978">
        <ele>349</ele>
        <time>2013-12-20T17:09:58Z</time>
      </trkpt>
      <trkpt lat="49.21488" lon="6.8699">
        <ele>349</ele>
        <time>2013-12-20T17:10:06Z</time>
      </trkpt>
      <trkpt lat="49.21491" lon="6.87002">
        <ele>349</ele>
        <time>2013-12-20T17:10:13Z</time>
      </trkpt>
      <trkpt lat="49.21494" lon="6.87015">
        <ele>349</ele>
        <time>2013-12-20T17:10:22Z</time>
      </trkpt>
      <trkpt lat="49.21499" lon="6.87025">
        <ele>350</ele>
        <time>2013-12-20T17:10:30Z</time>
      </trkpt>
      <trkpt lat="49.215" lon="6.87038">
        <ele>349</ele>
        <time>2013-12-20T17:10:40Z</time>
      </trkpt>
      <trkpt lat="49.21494" lon="6.87048">
        <ele>346</ele>
        <time>2013-12-20T17:11:05Z</time>
      </trkpt>
      <trkpt lat="49.21488" lon="6.87058">
        <ele>343</ele>
        <time>2013-12-20T17:11:30Z</time>
      </trkpt>
      <trkpt lat="49.21483" lon="6.87068">
        <ele>341</ele>
        <time>2013-12-20T17:11:45Z</time>
      </trkpt>
      <trkpt lat="49.21477" lon="6.87078">
        <ele>340</ele>
        <time>2013-12-20T17:11:56Z</time>
      </trkpt>
      <trkpt lat="49.21472" lon="6.87087">
        <ele>338</ele>
        <time>2013-12-20T17:12:09Z</time>
      </trkpt>
      <trkpt lat="49.21467" lon="6.87098">
        <ele>338</ele>
        <time>2013-12-20T17:12:14Z</time>
      </trkpt>
      <trkpt lat="49.2146" lon="6.87107">
        <ele>337</ele>
        <time>2013-12-20T17:12:20Z</time>
      </trkpt>
      <trkpt lat="49.21454" lon="6.87115">
        <ele>336</ele>
        <time>2013-12-20T17:12:40Z</time>
      </trkpt>
      <trkpt lat="49.2145" lon="6.87124">
        <ele>333</ele>
        <time>2013-12-20T17:12:48Z</time>
      </trkpt>
      <trkpt lat="49.21447" lon="6.87137">
        <ele>330</ele>
        <time>2013-12-20T17:12:55Z</time>
      </trkpt>
      <trkpt lat="49.21441" lon="6.87145">
        <ele>330</ele>
        <time>2013-12-20T17:13:01Z</time>
      </trkpt>
      <trkpt lat="49.21438" lon="6.87156">
        <ele>332</ele>
        <time>2013-12-20T17:13:10Z</time>
      </trkpt>
      <trkpt lat="49.21433" lon="6.87166">
        <ele>335</ele>
        <time>2013-12-20T17:13:18Z</time>
      </trkpt>
      <trkpt lat="49.21428" lon="6.8718">
        <ele>333</ele>
        <time>2013-12-20T17:13:23Z</time>
      </trkpt>
      <trkpt lat="49.21427" lon="6.87193">
        <ele>331</ele>
        <time>2013-12-20T17:13:31Z</time>
      </trkpt>
      <trkpt lat="49.21423" lon="6.87203">
        <ele>333</ele>
        <time>2013-12-20T17:13:40Z</time>
      </trkpt>
      <trkpt lat="49.21416" lon="6.87212">
        <ele>335</ele>
        <time>2013-12-20T17:13:56Z</time>
      </trkpt>
      <trkpt lat="49.21411" lon="6.87222">
        <ele>338</ele>
        <time>2013-12-20T17:14:05Z</time>
      </trkpt>
      <trkpt lat="49.21406" lon="6.87232">
        <ele>341</ele>
        <time>2013-12-20T17:14:19Z</time>
      </trkpt>
      <trkpt lat="49.21401" lon="6.87242">
        <ele>340</ele>
        <time>2013-12-20T17:14:37Z</time>
      </trkpt>
      <trkpt lat="49.21395" lon="6.87251">
        <ele>341</ele>
        <time>2013-12-20T17:14:47Z</time>
      </trkpt>
      <trkpt lat="49.21392" lon="6.87262">
        <ele>340</ele>
        <time>2013-12-20T17:14:52Z</time>
      </trkpt>
      <trkpt lat="49.21388" lon="6.87273">
        <ele>340</ele>
        <time>2013-12-20T17:14:59Z</time>
      </trkpt>
      <trkpt lat="49.21385" lon="6.87285">
        <ele>340</ele>
        <time>2013-12-20T17:15:11Z</time>
      </trkpt>
      <trkpt lat="49.21382" lon="6.87297">
        <ele>339</ele>
        <time>2013-12-20T17:15:24Z</time>
      </trkpt>
      <trkpt lat="49.2138" lon="6.87307">
        <ele>339</ele>
        <time>2013-12-20T17:15:28Z</time>
      </trkpt>
      <trkpt lat="49.21376" lon="6.87318">
        <ele>340</ele>
        <time>2013-12-20T17:15:32Z</time>
      </trkpt>
      <trkpt lat="49.21372" lon="6.87329">
        <ele>342</ele>
        <time>2013-12-20T17:15:41Z</time>
      </trkpt>
      <trkpt lat="49.21369" lon="6.87341">
        <ele>343</ele>
        <time>2013-12-20T17:15:50Z</time>
      </trkpt>
      <trkpt lat="49.21364" lon="6.87352">
        <ele>343</ele>
        <time>2013-12-20T17:15:59Z</time>
      </trkpt>
      <trkpt lat="49.21361" lon="6.87364">
        <ele>345</ele>
        <time>2013-12-20T17:16:06Z</time>
      </trkpt>
      <trkpt lat="49.21357" lon="6.87375">
        <ele>345</ele>
        <time>2013-12-20T17:16:19Z</time>
      </trkpt>
      <trkpt lat="49.21353" lon="6.87386">
        <ele>344</ele>
        <time>2013-12-20T17:16:27Z</time>
      </trkpt>
      <trkpt lat="49.21351" lon="6.87398">
        <ele>344</ele>
        <time>2013-12-20T17:16:38Z</time>
      </trkpt>
      <trkpt lat="49.21345" lon="6.87409">
        <ele>343</ele>
        <time>2013-12-20T17:16:46Z</time>
      </trkpt>
      <trkpt lat="49.21341" lon="6.87421">
        <ele>344</ele>
        <time>2013-12-20T17:16:59Z</time>
      </trkpt>
      <trkpt lat="49.21339" lon="6.87433">
        <ele>345</ele>
        <time>2013-12-20T17:17:15Z</time>
      </trkpt>
      <trkpt lat="49.21334" lon="6.87443">
        <ele>344</ele>
        <time>2013-12-20T17:17:22Z</time>
      </trkpt>
      <trkpt lat="49.21331" lon="6.87456">
        <ele>344</ele>
        <time>2013-12-20T17:17:33Z</time>
      </trkpt>
      <trkpt lat="49.21327" lon="6.87467">
        <ele>345</ele>
        <time>2013-12-20T17:17:42Z</time>
      </trkpt>
      <trkpt lat="49.21324" lon="6.87479">
        <ele>343</ele>
        <time>2013-12-20T17:17:56Z</time>
      </trkpt>
      <trkpt lat="49.2132" lon="6.8749">
        <ele>342</ele>
        <time>2013-12-20T17:18:06Z</time>
      </trkpt>
      <trkpt lat="49.21317" lon="6.87502">
        <ele>342</ele>
        <time>2013-12-20T17:18:23Z</time>
      </trkpt>
      <trkpt lat="49.21314" lon="6.87515">
        <ele>343</ele>
        <time>2013-12-20T17:18:32Z</time>
      </trkpt>
      <trkpt lat="49.21311" lon="6.87526">
        <ele>345</ele>
        <time>2013-12-20T17:18:40Z</time>
      </trkpt>
      <trkpt lat="49.21307" lon="6.87538">
        <ele>346</ele>
        <time>2013-12-20T17:18:48Z</time>
      </trkpt>
      <trkpt lat="49.21303" lon="6.87549">
        <ele>350</ele>
        <time>2013-12-20T17:19:01Z</time>
      </trkpt>
      <trkpt lat="49.213" lon="6.87561">
        <ele>350</ele>
        <time>2013-12-20T17:19:10Z</time>
      </trkpt>
      <trkpt lat="49.21297" lon="6.87573">
        <ele>346</ele>
        <time>2013-12-20T17:19:22Z</time>
      </trkpt>
      <trkpt lat="49.21289" lon="6.87579">
        <ele>346</ele>
        <time>2013-12-20T17:19:28Z</time>
      </trkpt>
      <trkpt lat="49.21281" lon="6.87584">
        <ele>346</ele>
        <time>2013-12-20T17:19:35Z</time>
      </trkpt>
      <trkpt lat="49.21274" lon="6.8759">
        <ele>346</ele>
        <time>2013-12-20T17:19:43Z</time>
      </trkpt>
      <trkpt lat="49.21266" lon="6.87595">
        <ele>345</ele>
        <time>2013-12-20T17:19:51Z</time>
      </trkpt>
      <trkpt lat="49.21259" lon="6.876">
        <ele>344</ele>
        <time>2013-12-20T17:19:59Z</time>
      </trkpt>
      <trkpt lat="49.21251" lon="6.87605">
        <ele>343</ele>
        <time>2013-12-20T17:20:07Z</time>
      </trkpt>
      <trkpt lat="49.21243" lon="6.87611">
        <ele>342</ele>
        <time>2013-12-20T17:20:16Z</time>
      </trkpt>
      <trkpt lat="49.21235" lon="6.87617">
        <ele>340</ele>
        <time>2013-12-20T17:20:25Z</time>
      </trkpt>
      <trkpt lat="49.21227" lon="6.8762">
        <ele>339</ele>
        <time>2013-12-20T17:20:35Z</time>
      </trkpt>
      <trkpt lat="49.2122" lon="6.87627">
        <ele>337</ele>
        <time>2013-12-20T17:20:44Z</time>
      </trkpt>
      <trkpt lat="49.21212" lon="6.87631">
        <ele>337</ele>
        <time>2013-12-20T17:20:53Z</time>
      </trkpt>
      <trkpt lat="49.21204" lon="6.87635">
        <ele>337</ele>
        <time>2013-12-20T17:21:04Z</time>
      </trkpt>
      <trkpt lat="49.21195" lon="6.8764">
        <ele>335</ele>
        <time>2013-12-20T17:21:15Z</time>
      </trkpt>
      <trkpt lat="49.21189" lon="6.87648">
        <ele>333</ele>
        <time>2013-12-20T17:22:05Z</time>
      </trkpt>
      <trkpt lat="49.21181" lon="6.87653">
        <ele>330</ele>
        <time>2013-12-20T17:23:44Z</time>
      </trkpt>
      <trkpt lat="49.21172" lon="6.87656">
        <ele>332</ele>
        <time>2013-12-20T17:24:18Z</time>
      </trkpt>
      <trkpt lat="49.21164" lon="6.87658">
        <ele>332</ele>
        <time>2013-12-20T17:25:03Z</time>
      </trkpt>
      <trkpt lat="49.21155" lon="6.8766">
        <ele>333</ele>
        <time>2013-12-20T17:25:22Z</time>
      </trkpt>
      <trkpt lat="49.21149" lon="6.87664">
        <ele>333</ele>
        <time>2013-12-20T17:26:16Z</time>
      </trkpt>
      <trkpt lat="49.21141" lon="6.8767">
        <ele>333</ele>
        <time>2013-12-20T17:26:33Z</time>
      </trkpt>
      <trkpt lat="49.21134" lon="6.87675">
        <ele>334</ele>
        <time>2013-12-20T17:26:56Z</time>
      </trkpt>
      <trkpt lat="49.21126" lon="6.8768">
        <ele>333</ele>
        <time>2013-12-20T17:27:03Z</time>
      </trkpt>
      <trkpt lat="49.21118" lon="6.87686">
        <ele>333</ele>
        <time>2013-12-20T17:27:10Z</time>
      </trkpt>
      <trkpt lat="49.21111" lon="6.87695">
        <ele>333</ele>
        <time>2013-12-20T17:27:31Z</time>
      </trkpt>
      <trkpt lat="49.21105" lon="6.87705">
        <ele>329</ele>
        <time>2013-12-20T17:27:55Z</time>
      </trkpt>
      <trkpt lat="49.21099" lon="6.87715">
        <ele>325</ele>
        <time>2013-12-20T17:28:27Z</time>
      </trkpt>
      <trkpt lat="49.21094" lon="6.87724">
        <ele>324</ele>
        <time>2013-12-20T17:28:36Z</time>
      </trkpt>
      <trkpt lat="49.21091" lon="6.87736">
        <ele>323</ele>
        <time>2013-12-20T17:28:40Z</time>
      </trkpt>
      <trkpt lat="49.21088" lon="6.87746">
        <ele>324</ele>
        <time>2013-12-20T17:28:45Z</time>
      </trkpt>
      <trkpt lat="49.21086" lon="6.87757">
        <ele>326</ele>
        <time>2013-12-20T17:28:51Z</time>
      </trkpt>
      <trkpt lat="49.21086" lon="6.87771">
        <ele>326</ele>
        <time>2013-12-20T17:28:58Z</time>
      </trkpt>
      <trkpt lat="49.21089" lon="6.87783">
        <ele>327</ele>
        <time>2013-12-20T17:29:07Z</time>
      </trkpt>
      <trkpt lat="49.21094" lon="6.87794">
        <ele>326</ele>
        <time>2013-12-20T17:29:16Z</time>
      </trkpt>
      <trkpt lat="49.21097" lon="6.87806">
        <ele>326</ele>
        <time>2013-12-20T17:29:26Z</time>
      </trkpt>
      <trkpt lat="49.21099" lon="6.87818">
        <ele>322</ele>
        <time>2013-12-20T17:29:37Z</time>
      </trkpt>
      <trkpt lat="49.21105" lon="6.87827">
        <ele>323</ele>
        <time>2013-12-20T17:29:44Z</time>
      </trkpt>
      <trkpt lat="49.2111" lon="6.87838">
        <ele>322</ele>
        <time>2013-12-20T17:29:54Z</time>
      </trkpt>
      <trkpt lat="49.21115" lon="6.87847">
        <ele>319</ele>
        <time>2013-12-20T17:30:03Z</time>
      </trkpt>
      <trkpt lat="49.21119" lon="6.87858">
        <ele>318</ele>
        <time>2013-12-20T17:30:12Z</time>
      </trkpt>
      <trkpt lat="49.21125" lon="6.87867">
        <ele>318</ele>
        <time>2013-12-20T17:30:23Z</time>
      </trkpt>
      <trkpt lat="49.21127" lon="6.87881">
        <ele>315</ele>
        <time>2013-12-20T17:30:33Z</time>
      </trkpt>
      <trkpt lat="49.21132" lon="6.8789">
        <ele>317</ele>
        <time>2013-12-20T17:30:43Z</time>
      </trkpt>
      <trkpt lat="49.21136" lon="6.87902">
        <ele>320</ele>
        <time>2013-12-20T17:31:48Z</time>
      </trkpt>
      <trkpt lat="49.2114" lon="6.87913">
        <ele>320</ele>
        <time>2013-12-20T17:31:56Z</time>
      </trkpt>
      <trkpt lat="49.21142" lon="6.87926">
        <ele>322</ele>
        <time>2013-12-20T17:32:04Z</time>
      </trkpt>
      <trkpt lat="49.21148" lon="6.87935">
        <ele>318</ele>
        <time>2013-12-20T17:32:20Z</time>
      </trkpt>
      <trkpt lat="49.21155" lon="6.87942">
        <ele>320</ele>
        <time>2013-12-20T17:32:28Z</time>
      </trkpt>
      <trkpt lat="49.21163" lon="6.87944">
        <ele>321</ele>
        <time>2013-12-20T17:32:35Z</time>
      </trkpt>
      <trkpt lat="49.21171" lon="6.87941">
        <ele>322</ele>
        <time>2013-12-20T17:32:42Z</time>
      </trkpt>
      <trkpt lat="49.21179" lon="6.87935">
        <ele>322</ele>
        <time>2013-12-20T17:32:50Z</time>
      </trkpt>
      <trkpt lat="49.21185" lon="6.87928">
        <ele>321</ele>
        <time>2013-12-20T17:33:05Z</time>
      </trkpt>
      <trkpt lat="49.21192" lon="6.8792">
        <ele>320</ele>
        <time>2013-12-20T17:33:15Z</time>
      </trkpt>
      <trkpt lat="49.212" lon="6.87917">
        <ele>313</ele>
        <time>2013-12-20T17:33:26Z</time>
      </trkpt>
      <trkpt lat="49.21203" lon="6.87904">
        <ele>320</ele>
        <time>2013-12-20T17:34:02Z</time>
      </trkpt>
      <trkpt lat="49.21206" lon="6.87892">
        <ele>322</ele>
        <time>2013-12-20T17:34:12Z</time>
      </trkpt>
      <trkpt lat="49.21211" lon="6.8788">
        <ele>320</ele>
        <time>2013-12-20T17:34:23Z</time>
      </trkpt>
      <trkpt lat="49.21216" lon="6.8787">
        <ele>318</ele>
        <time>2013-12-20T17:34:39Z</time>
      </trkpt>
      <trkpt lat="49.21224" lon="6.87868">
        <ele>314</ele>
        <time>2013-12-20T17:34:51Z</time>
      </trkpt>
      <trkpt lat="49.21232" lon="6.8787">
        <ele>321</ele>
        <time>2013-12-20T17:35:08Z</time>
      </trkpt>
      <trkpt lat="49.21241" lon="6.87869">
        <ele>331</ele>
        <time>2013-12-20T17:35:37Z</time>
      </trkpt>
      <trkpt lat="49.21249" lon="6.87869">
        <ele>334</ele>
        <time>2013-12-20T17:36:06Z</time>
      </trkpt>
      <trkpt lat="49.21258" lon="6.8787">
        <ele>333</ele>
        <time>2013-12-20T17:36:47Z</time>
      </trkpt>
      <trkpt lat="49.21265" lon="6.87877">
        <ele>335</ele>
        <time>2013-12-20T17:37:18Z</time>
      </trkpt>
      <trkpt lat="49.21273" lon="6.8788">
        <ele>337</ele>
        <time>2013-12-20T17:37:40Z</time>
      </trkpt>
      <trkpt lat="49.21281" lon="6.87885">
        <ele>336</ele>
        <time>2013-12-20T17:37:52Z</time>
      </trkpt>
      <trkpt lat="49.21288" lon="6.87878">
        <ele>339</ele>
        <time>2013-12-20T17:39:40Z</time>
      </trkpt>
      <trkpt lat="49.21294" lon="6.87867">
        <ele>338</ele>
        <time>2013-12-20T17:39:58Z</time>
      </trkpt>
      <trkpt lat="49.21297" lon="6.87855">
        <ele>338</ele>
        <time>2013-12-20T17:40:07Z</time>
      </trkpt>
      <trkpt lat="49.21301" lon="6.87844">
        <ele>340</ele>
        <time>2013-12-20T17:40:15Z</time>
      </trkpt>
      <trkpt lat="49.21303" lon="6.87832">
        <ele>343</ele>
        <time>2013-12-20T17:40:25Z</time>
      </trkpt>
      <trkpt lat="49.21306" lon="6.8782">
        <ele>346</ele>
        <time>2013-12-20T17:40:34Z</time>
      </trkpt>
      <trkpt lat="49.21311" lon="6.87808">
        <ele>345</ele>
        <time>2013-12-20T17:40:45Z</time>
      </trkpt>
      <trkpt lat="49.21314" lon="6.87796">
        <ele>345</ele>
        <time>2013-12-20T17:40:58Z</time>
      </trkpt>
      <trkpt lat="49.21316" lon="6.87782">
        <ele>347</ele>
        <time>2013-12-20T17:41:10Z</time>
      </trkpt>
      <trkpt lat="49.21321" lon="6.87772">
        <ele>345</ele>
        <time>2013-12-20T17:41:19Z</time>
      </trkpt>
      <trkpt lat="49.21325" lon="6.87761">
        <ele>346</ele>
        <time>2013-12-20T17:41:29Z</time>
      </trkpt>
      <trkpt lat="49.21329" lon="6.87749">
        <ele>348</ele>
        <time>2013-12-20T17:41:38Z</time>
      </trkpt>
      <trkpt lat="49.21332" lon="6.87736">
        <ele>348</ele>
        <time>2013-12-20T17:41:46Z</time>
      </trkpt>
      <trkpt lat="49.21336" lon="6.87725">
        <ele>348</ele>
        <time>2013-12-20T17:41:56Z</time>
      </trkpt>
      <trkpt lat="49.2134" lon="6.87713">
        <ele>347</ele>
        <time>2013-12-20T17:42:07Z</time>
      </trkpt>
      <trkpt lat="49.21342" lon="6.87701">
        <ele>345</ele>
        <time>2013-12-20T17:42:15Z</time>
      </trkpt>
      <trkpt lat="49.21348" lon="6.87691">
        <ele>342</ele>
        <time>2013-12-20T17:42:25Z</time>
      </trkpt>
      <trkpt lat="49.21351" lon="6.87679">
        <ele>344</ele>
        <time>2013-12-20T17:42:33Z</time>
      </trkpt>
      <trkpt lat="49.21354" lon="6.87667">
        <ele>343</ele>
        <time>2013-12-20T17:42:41Z</time>
      </trkpt>
      <trkpt lat="49.21358" lon="6.87655">
        <ele>345</ele>
        <time>2013-12-20T17:42:51Z</time>
      </trkpt>
      <trkpt lat="49.21362" lon="6.87644">
        <ele>342</ele>
        <time>2013-12-20T17:43:00Z</time>
      </trkpt>
      <trkpt lat="49.21365" lon="6.87631">
        <ele>343</ele>
        <time>2013-12-20T17:43:07Z</time>
      </trkpt>
      <trkpt lat="49.21368" lon="6.87619">
        <ele>346</ele>
        <time>2013-12-20T17:43:16Z</time>
      </trkpt>
      <trkpt lat="49.21371" lon="6.87607">
        <ele>347</ele>
        <time>2013-12-20T17:43:24Z</time>
      </trkpt>
      <trkpt lat="49.21375" lon="6.87595">
        <ele>345</ele>
        <time>2013-12-20T17:43:33Z</time>
      </trkpt>
      <trkpt lat="49.21378" lon="6.87583">
        <ele>345</ele>
        <time>2013-12-20T17:43:42Z</time>
      </trkpt>
      <trkpt lat="49.21382" lon="6.87572">
        <ele>341</ele>
        <time>2013-12-20T17:43:51Z</time>
      </trkpt>
      <trkpt lat="49.21385" lon="6.8756">
        <ele>345</ele>
        <time>2013-12-20T17:44:00Z</time>
      </trkpt>
      <trkpt lat="49.21388" lon="6.87548">
        <ele>348</ele>
        <time>2013-12-20T17:44:13Z</time>
      </trkpt>
      <trkpt lat="49.2139" lon="6.87535">
        <ele>349</ele>
        <time>2013-12-20T17:44:50Z</time>
      </trkpt>
      <trkpt lat="49.21394" lon="6.87524">
        <ele>348</ele>
        <time>2013-12-20T17:46:09Z</time>
      </trkpt>
      <trkpt lat="49.21398" lon="6.87513">
        <ele>350</ele>
        <time>2013-12-20T17:46:20Z</time>
      </trkpt>
      <trkpt lat="49.21402" lon="6.87501">
        <ele>348</ele>
        <time>2013-12-20T17:46:33Z</time>
      </trkpt>
      <trkpt lat="49.21406" lon="6.8749">
        <ele>347</ele>
        <time>2013-12-20T17:46:45Z</time>
      </trkpt>
      <trkpt lat="49.2141" lon="6.87478">
        <ele>345</ele>
        <time>2013-12-20T17:46:55Z</time>
      </trkpt>
      <trkpt lat="49.21414" lon="6.87466">
        <ele>346</ele>
        <time>2013-12-20T17:47:03Z</time>
      </trkpt>
      <trkpt lat="49.2142" lon="6.87456">
        <ele>342</ele>
        <time>2013-12-20T17:47:14Z</time>
      </trkpt>
      <trkpt lat="49.21423" lon="6.87446">
        <ele>340</ele>
        <time>2013-12-20T17:47:22Z</time>
      </trkpt>
      <trkpt lat="49.21426" lon="6.87434">
        <ele>341</ele>
        <time>2013-12-20T17:47:31Z</time>
      </trkpt>
      <trkpt lat="49.21429" lon="6.87422">
        <ele>342</ele>
        <time>2013-12-20T17:47:41Z</time>
      </trkpt>
      <trkpt lat="49.21432" lon="6.8741">
        <ele>346</ele>
        <time>2013-12-20T17:47:48Z</time>
      </trkpt>
      <trkpt lat="49.21434" lon="6.87396">
        <ele>346</ele>
        <time>2013-12-20T17:47:59Z</time>
      </trkpt>
      <trkpt lat="49.21439" lon="6.87386">
        <ele>346</ele>
        <time>2013-12-20T17:48:08Z</time>
      </trkpt>
      <trkpt lat="49.21442" lon="6.87373">
        <ele>347</ele>
        <time>2013-12-20T17:48:16Z</time>
      </trkpt>
      <trkpt lat="49.21444" lon="6.87361">
        <ele>348</ele>
        <time>2013-12-20T17:48:24Z</time>
      </trkpt>
      <trkpt lat="49.21446" lon="6.87349">
        <ele>349</ele>
        <time>2013-12-20T17:48:32Z</time>
      </trkpt>
      <trkpt lat="49.2145" lon="6.87338">
        <ele>350</ele>
        <time>2013-12-20T17:48:40Z</time>
      </trkpt>
      <trkpt lat="49.21454" lon="6.87326">
        <ele>350</ele>
        <time>2013-12-20T17:48:49Z</time>
      </trkpt>
      <trkpt lat="49.21457" lon="6.87315">
        <ele>351</ele>
        <time>2013-12-20T17:48:56Z</time>
      </trkpt>
      <trkpt lat="49.21463" lon="6.87306">
        <ele>346</ele>
        <time>2013-12-20T17:49:07Z</time>
      </trkpt>
      <trkpt lat="49.21466" lon="6.87295">
        <ele>343</ele>
        <time>2013-12-20T17:49:20Z</time>
      </trkpt>
      <trkpt lat="49.21468" lon="6.87284">
        <ele>343</ele>
        <time>2013-12-20T17:49:27Z</time>
      </trkpt>
      <trkpt lat="49.2147" lon="6.87272">
        <ele>344</ele>
        <time>2013-12-20T17:49:34Z</time>
      </trkpt>
      <trkpt lat="49.21474" lon="6.87259">
        <ele>342</ele>
        <time>2013-12-20T17:49:44Z</time>
      </trkpt>
      <trkpt lat="49.21478" lon="6.87247">
        <ele>343</ele>
        <time>2013-12-20T17:49:53Z</time>
      </trkpt>
      <trkpt lat="49.21484" lon="6.87237">
        <ele>345</ele>
        <time>2013-12-20T17:50:03Z</time>
      </trkpt>
      <trkpt lat="49.2149" lon="6.87228">
        <ele>346</ele>
        <time>2013-12-20T17:50:13Z</time>
      </trkpt>
      <trkpt lat="49.21495" lon="6.87217">
        <ele>346</ele>
        <time>2013-12-20T17:50:23Z</time>
      </trkpt>
      <trkpt lat="49.215" lon="6.87207">
        <ele>347</ele>
        <time>2013-12-20T17:50:32Z</time>
      </trkpt>
      <trkpt lat="49.21506" lon="6.87198">
        <ele>347</ele>
        <time>2013-12-20T17:50:43Z</time>
      </trkpt>
      <trkpt lat="49.21511" lon="6.87188">
        <ele>347</ele>
        <time>2013-12-20T17:50:53Z</time>
      </trkpt>
      <trkpt lat="49.21515" lon="6.87178">
        <ele>349</ele>
        <time>2013-12-20T17:51:01Z</time>
      </trkpt>
      <trkpt lat="49.21522" lon="6.8717">
        <ele>351</ele>
        <time>2013-12-20T17:51:10Z</time>
      </trkpt>
      <trkpt lat="49.21528" lon="6.8716">
        <ele>349</ele>
        <time>2013-12-20T17:51:20Z</time>
      </trkpt>
      <trkpt lat="49.21534" lon="6.8715">
        <ele>348</ele>
        <time>2013-12-20T17:51:46Z</time>
      </trkpt>
      <trkpt lat="49.21533" lon="6.87138">
        <ele>349</ele>
        <time>2013-12-20T17:52:02Z</time>
      </trkpt>
      <trkpt lat="49.21529" lon="6.87125">
        <ele>350</ele>
        <time>2013-12-20T17:52:17Z</time>
      </trkpt>
      <trkpt lat="49.21526" lon="6.87113">
        <ele>349</ele>
        <time>2013-12-20T17:52:27Z</time>
      </trkpt>
      <trkpt lat="49.21523" lon="6.87101">
        <ele>349</ele>
        <time>2013-12-20T17:52:37Z</time>
      </trkpt>
      <trkpt lat="49.21518" lon="6.8709">
        <ele>351</ele>
        <time>2013-12-20T17:52:45Z</time>
      </trkpt>
      <trkpt lat="49.21514" lon="6.87079">
        <ele>348</ele>
        <time>2013-12-20T17:52:57Z</time>
      </trkpt>
      <trkpt lat="49.21509" lon="6.87068">
        <ele>345</ele>
        <time>2013-12-20T17:53:06Z</time>
      </trkpt>
      <trkpt lat="49.21507" lon="6.87055">
        <ele>343</ele>
        <time>2013-12-20T17:53:18Z</time>
      </trkpt>
      <trkpt lat="49.21503" lon="6.87042">
        <ele>344</ele>
        <time>2013-12-20T17:54:05Z</time>
      </trkpt>
      <trkpt lat="49.21501" lon="6.8703">
        <ele>341</ele>
        <time>2013-12-20T17:54:16Z</time>
      </trkpt>
      <trkpt lat="49.21499" lon="6.87018">
        <ele>340</ele>
        <time>2013-12-20T17:54:28Z</time>
      </trkpt>
      <trkpt lat="49.21499" lon="6.87005">
        <ele>342</ele>
        <time>2013-12-20T17:54:35Z</time>
      </trkpt>
      <trkpt lat="49.21497" lon="6.86992">
        <ele>343</ele>
        <time>2013-12-20T17:54:48Z</time>
      </trkpt>
      <trkpt lat="49.21493" lon="6.86982">
        <ele>344</ele>
        <time>2013-12-20T17:54:54Z</time>
      </trkpt>
      <trkpt lat="49.2149" lon="6.8697">
        <ele>342</ele>
        <time>2013-12-20T17:55:03Z</time>
      </trkpt>
      <trkpt lat="49.21487" lon="6.86958">
        <ele>342</ele>
        <time>2013-12-20T17:55:15Z</time>
      </trkpt>
      <trkpt lat="49.21484" lon="6.86947">
        <ele>343</ele>
        <time>2013-12-20T17:55:22Z</time>
      </trkpt>
      <trkpt lat="49.21481" lon="6.86934">
        <ele>343</ele>
        <time>2013-12-20T17:55:30Z</time>
      </trkpt>
      <trkpt lat="49.21477" lon="6.86922">
        <ele>344</ele>
        <time>2013-12-20T17:55:38Z</time>
      </trkpt>
      <trkpt lat="49.21475" lon="6.8691">
        <ele>342</ele>
        <time>2013-12-20T17:55:47Z</time>
      </trkpt>
      <trkpt lat="49.21472" lon="6.86897">
        <ele>342</ele>
        <time>2013-12-20T17:55:55Z</time>
      </trkpt>
      <trkpt lat="49.21469" lon="6.86885">
        <ele>343</ele>
        <time>2013-12-20T17:56:03Z</time>
      </trkpt>
      <trkpt lat="49.21466" lon="6.86874">
        <ele>342</ele>
        <time>2013-12-20T17:56:13Z</time>
      </trkpt>
      <trkpt lat="49.21461" lon="6.86862">
        <ele>342</ele>
        <time>2013-12-20T17:56:21Z</time>
      </trkpt>
      <trkpt lat="49.21458" lon="6.86849">
        <ele>339</ele>
        <time>2013-12-20T17:56:30Z</time>
      </trkpt>
      <trkpt lat="49.21453" lon="6.86838">
        <ele>339</ele>
        <time>2013-12-20T17:56:41Z</time>
      </trkpt>
      <trkpt lat="49.2145" lon="6.86826">
        <ele>340</ele>
        <time>2013-12-20T17:56:49Z</time>
      </trkpt>
      <trkpt lat="49.21445" lon="6.86815">
        <ele>340</ele>
        <time>2013-12-20T17:56:58Z</time>
      </trkpt>
      <trkpt lat="49.21441" lon="6.86802">
        <ele>340</ele>
        <time>2013-12-20T17:57:06Z</time>
      </trkpt>
      <trkpt lat="49.21437" lon="6.8679">
        <ele>339</ele>
        <time>2013-12-20T17:57:15Z</time>
      </trkpt>
      <trkpt lat="49.21434" lon="6.86778">
        <ele>336</ele>
        <time>2013-12-20T17:57:23Z</time>
      </trkpt>
      <trkpt lat="49.21432" lon="6.86766">
        <ele>330</ele>
        <time>2013-12-20T17:57:33Z</time>
      </trkpt>
      <trkpt lat="49.21426" lon="6.86755">
        <ele>335</ele>
        <time>2013-12-20T17:58:12Z</time>
      </trkpt>
      <trkpt lat="49.21421" lon="6.86745">
        <ele>334</ele>
        <time>2013-12-20T17:58:21Z</time>
      </trkpt>
      <trkpt lat="49.21416" lon="6.86736">
        <ele>334</ele>
        <time>2013-12-20T17:58:29Z</time>
      </trkpt>
      <trkpt lat="49.21411" lon="6.86725">
        <ele>335</ele>
        <time>2013-12-20T17:58:36Z</time>
      </trkpt>
      <trkpt lat="49.21406" lon="6.86715">
        <ele>335</ele>
        <time>2013-12-20T17:58:44Z</time>
      </trkpt>
      <trkpt lat="49.214" lon="6.86707">
        <ele>335</ele>
        <time>2013-12-20T17:58:51Z</time>
      </trkpt>
      <trkpt lat="49.21395" lon="6.86698">
        <ele>336</ele>
        <time>2013-12-20T17:58:58Z</time>
      </trkpt>
      <trkpt lat="49.21389" lon="6.86688">
        <ele>336</ele>
        <time>2013-12-20T17:59:06Z</time>
      </trkpt>
      <trkpt lat="49.21384" lon="6.86678">
        <ele>337</ele>
        <time>2013-12-20T17:59:18Z</time>
      </trkpt>
      <trkpt lat="49.21379" lon="6.86668">
        <ele>334</ele>
        <time>2013-12-20T17:59:29Z</time>
      </trkpt>
      <trkpt lat="49.21373" lon="6.86658">
        <ele>336</ele>
        <time>2013-12-20T17:59:37Z</time>
      </trkpt>
      <trkpt lat="49.21367" lon="6.86648">
        <ele>336</ele>
        <time>2013-12-20T17:59:44Z</time>
      </trkpt>
      <trkpt lat="49.21362" lon="6.86639">
        <ele>337</ele>
        <time>2013-12-20T17:59:52Z</time>
      </trkpt>
      <trkpt lat="49.21357" lon="6.86628">
        <ele>337</ele>
        <time>2013-12-20T18:00:01Z</time>
      </trkpt>
      <trkpt lat="49.21351" lon="6.86617">
        <ele>339</ele>
        <time>2013-12-20T18:00:11Z</time>
      </trkpt>
      <trkpt lat="49.21345" lon="6.86607">
        <ele>339</ele>
        <time>2013-12-20T18:00:22Z</time>
      </trkpt>
      <trkpt lat="49.21341" lon="6.86595">
        <ele>337</ele>
        <time>2013-12-20T18:00:37Z</time>
      </trkpt>
      <trkpt lat="49.21343" lon="6.86582">
        <ele>339</ele>
        <time>2013-12-20T18:00:55Z</time>
      </trkpt>
      <trkpt lat="49.21349" lon="6.86572">
        <ele>341</ele>
        <time>2013-12-20T18:01:04Z</time>
      </trkpt>
      <trkpt lat="49.21352" lon="6.8656">
        <ele>344</ele>
        <time>2013-12-20T18:01:14Z</time>
      </trkpt>
      <trkpt lat="49.21359" lon="6.86553">
        <ele>345</ele>
        <time>2013-12-20T18:01:23Z</time>
      </trkpt>
      <trkpt lat="49.21365" lon="6.86544">
        <ele>346</ele>
        <time>2013-12-20T18:01:32Z</time>
      </trkpt>
      <trkpt lat="49.21372" lon="6.86535">
        <ele>347</ele>
        <time>2013-12-20T18:01:42Z</time>
      </trkpt>
      <trkpt lat="49.21378" lon="6.86526">
        <ele>350</ele>
        <time>2013-12-20T18:01:50Z</time>
      </trkpt>
      <trkpt lat="49.21387" lon="6.86525">
        <ele>345</ele>
        <time>2013-12-20T18:02:04Z</time>
      </trkpt>
      <trkpt lat="49.21393" lon="6.86533">
        <ele>346</ele>
        <time>2013-12-20T18:02:19Z</time>
      </trkpt>
      <trkpt lat="49.21397" lon="6.86544">
        <ele>345</ele>
        <time>2013-12-20T18:02:26Z</time>
      </trkpt>
      <trkpt lat="49.21404" lon="6.86553">
        <ele>345</ele>
        <time>2013-12-20T18:02:34Z</time>
      </trkpt>
      <trkpt lat="49.21409" lon="6.86564">
        <ele>346</ele>
        <time>2013-12-20T18:02:44Z</time>
      </trkpt>
      <trkpt lat="49.21413" lon="6.86575">
        <ele>345</ele>
        <time>2013-12-20T18:02:54Z</time>
      </trkpt>
      <trkpt lat="49.21418" lon="6.86586">
        <ele>343</ele>
        <time>2013-12-20T18:03:05Z</time>
      </trkpt>
      <trkpt lat="49.21422" lon="6.86597">
        <ele>340</ele>
        <time>2013-12-20T18:03:15Z</time>
      </trkpt>
      <trkpt lat="49.21427" lon="6.86607">
        <ele>339</ele>
        <time>2013-12-20T18:03:23Z</time>
      </trkpt>
      <trkpt lat="49.21433" lon="6.86617">
        <ele>338</ele>
        <time>2013-12-20T18:03:32Z</time>
      </trkpt>
      <trkpt lat="49.21436" lon="6.86628">
        <ele>336</ele>
        <time>2013-12-20T18:03:41Z</time>
      </trkpt>
      <trkpt lat="49.2144" lon="6.8664">
        <ele>332</ele>
        <time>2013-12-20T18:03:50Z</time>
      </trkpt>
      <trkpt lat="49.21444" lon="6.86652">
        <ele>331</ele>
        <time>2013-12-20T18:03:59Z</time>
      </trkpt>
      <trkpt lat="49.2145" lon="6.86661">
        <ele>331</ele>
        <time>2013-12-20T18:04:08Z</time>
      </trkpt>
      <trkpt lat="49.21454" lon="6.86672">
        <ele>334</ele>
        <time>2013-12-20T18:04:17Z</time>
      </trkpt>
      <trkpt lat="49.2146" lon="6.8668">
        <ele>340</ele>
        <time>2013-12-20T18:04:26Z</time>
      </trkpt>
      <trkpt lat="49.21467" lon="6.86687">
        <ele>343</ele>
        <time>2013-12-20T18:04:33Z</time>
      </trkpt>
      <trkpt lat="49.21472" lon="6.86697">
        <ele>345</ele>
        <time>2013-12-20T18:04:43Z</time>
      </trkpt>
      <trkpt lat="49.21477" lon="6.86709">
        <ele>345</ele>
        <time>2013-12-20T18:04:52Z</time>
      </trkpt>
      <trkpt lat="49.21483" lon="6.86719">
        <ele>347</ele>
        <time>2013-12-20T18:05:02Z</time>
      </trkpt>
      <trkpt lat="49.21489" lon="6.86727">
        <ele>348</ele>
        <time>2013-12-20T18:05:10Z</time>
      </trkpt>
      <trkpt lat="49.21494" lon="6.86738">
        <ele>350</ele>
        <time>2013-12-20T18:05:19Z</time>
      </trkpt>
      <trkpt lat="49.21499" lon="6.86748">
        <ele>351</ele>
        <time>2013-12-20T18:05:29Z</time>
      </trkpt>
      <trkpt lat="49.21503" lon="6.86759">
        <ele>352</ele>
        <time>2013-12-20T18:05:38Z</time>
      </trkpt>
      <trkpt lat="49.21508" lon="6.86769">
        <ele>353</ele>
        <time>2013-12-20T18:05:47Z</time>
      </trkpt>
      <trkpt lat="49.21512" lon="6.86781">
        <ele>353</ele>
        <time>2013-12-20T18:06:01Z</time>
      </trkpt>
      <trkpt lat="49.21517" lon="6.86792">
        <ele>355</ele>
        <time>2013-12-20T18:06:10Z</time>
      </trkpt>
      <trkpt lat="49.21522" lon="6.86802">
        <ele>355</ele>
        <time>2013-12-20T18:06:24Z</time>
      </trkpt>
      <trkpt lat="49.21528" lon="6.86811">
        <ele>356</ele>
        <time>2013-12-20T18:06:34Z</time>
      </trkpt>
      <trkpt lat="49.21534" lon="6.86821">
        <ele>356</ele>
        <time>2013-12-20T18:06:43Z</time>
      </trkpt>
      <trkpt lat="49.21538" lon="6.86832">
        <ele>356</ele>
        <time>2013-12-20T18:06:51Z</time>
      </trkpt>
      <trkpt lat="49.21544" lon="6.86842">
        <ele>357</ele>
        <time>2013-12-20T18:07:01Z</time>
      </trkpt>
      <trkpt lat="49.2155" lon="6.86852">
        <ele>356</ele>
        <time>2013-12-20T18:07:11Z</time>
      </trkpt>
      <trkpt lat="49.21555" lon="6.86861">
        <ele>355</ele>
        <time>2013-12-20T18:07:20Z</time>
      </trkpt>
      <trkpt lat="49.21561" lon="6.86872">
        <ele>355</ele>
        <time>2013-12-20T18:07:29Z</time>
      </trkpt>
      <trkpt lat="49.21565" lon="6.86884">
        <ele>356</ele>
        <time>2013-12-20T18:07:41Z</time>
      </trkpt>
      <trkpt lat="49.21566" lon="6.86896">
        <ele>354</ele>
        <time>2013-12-20T18:07:54Z</time>
      </trkpt>
      <trkpt lat="49.21558" lon="6.86903">
        <ele>351</ele>
        <time>2013-12-20T18:08:03Z</time>
      </trkpt>
      <trkpt lat="49.21551" lon="6.86908">
        <ele>349</ele>
        <time>2013-12-20T18:08:11Z</time>
      </trkpt>
      <trkpt lat="49.21544" lon="6.86917">
        <ele>350</ele>
        <time>2013-12-20T18:08:34Z</time>
      </trkpt>
      <trkpt lat="49.21537" lon="6.86923">
        <ele>351</ele>
        <time>2013-12-20T18:08:45Z</time>
      </trkpt>
      <trkpt lat="49.21529" lon="6.86929">
        <ele>350</ele>
        <time>2013-12-20T18:08:56Z</time>
      </trkpt>
      <trkpt lat="49.21522" lon="6.86937">
        <ele>347</ele>
        <time>2013-12-20T18:09:08Z</time>
      </trkpt>
      <trkpt lat="49.21515" lon="6.86944">
        <ele>346</ele>
        <time>2013-12-20T18:09:19Z</time>
      </trkpt>
      <trkpt lat="49.21507" lon="6.86947">
        <ele>344</ele>
        <time>2013-12-20T18:09:28Z</time>
      </trkpt>
      <trkpt lat="49.215" lon="6.86953">
        <ele>344</ele>
        <time>2013-12-20T18:09:37Z</time>
      </trkpt>
      <trkpt lat="49.21492" lon="6.86959">
        <ele>344</ele>
        <time>2013-12-20T18:09:45Z</time>
      </trkpt>
      <trkpt lat="49.21487" lon="6.86969">
        <ele>342</ele>
        <time>2013-12-20T18:09:56Z</time>
      </trkpt>
      <trkpt lat="49.21485" lon="6.86982">
        <ele>342</ele>
        <time>2013-12-20T18:10:07Z</time>
      </trkpt>
      <trkpt lat="49.21491" lon="6.86991">
        <ele>344</ele>
        <time>2013-12-20T18:10:28Z</time>
      </trkpt>
      <trkpt lat="49.21494" lon="6.87004">
        <ele>343</ele>
        <time>2013-12-20T18:10:39Z</time>
      </trkpt>
      <trkpt lat="49.21498" lon="6.87016">
        <ele>343</ele>
        <time>2013-12-20T18:10:47Z</time>
      </trkpt>
      <trkpt lat="49.215" lon="6.87029">
        <ele>341</ele>
        <time>2013-12-20T18:10:57Z</time>
      </trkpt>
      <trkpt lat="49.21498" lon="6.87041">
        <ele>338</ele>
        <time>2013-12-20T18:11:07Z</time>
      </trkpt>
      <trkpt lat="49.21492" lon="6.8705">
        <ele>337</ele>
        <time>2013-12-20T18:11:15Z</time>
      </trkpt>
      <trkpt lat="49.21486" lon="6.87056">
        <ele>331</ele>
        <time>2013-12-20T18:11:26Z</time>
      </trkpt>
      <trkpt lat="49.21479" lon="6.87065">
        <ele>332</ele>
        <time>2013-12-20T18:11:34Z</time>
      </trkpt>
      <trkpt lat="49.21473" lon="6.87073">
        <ele>332</ele>
        <time>2013-12-20T18:11:41Z</time>
      </trkpt>
      <trkpt lat="49.21467" lon="6.87082">
        <ele>332</ele>
        <time>2013-12-20T18:11:50Z</time>
      </trkpt>
      <trkpt lat="49.21462" lon="6.87092">
        <ele>335</ele>
        <time>2013-12-20T18:11:58Z</time>
      </trkpt>
      <trkpt lat="49.21455" lon="6.871">
        <ele>333</ele>
        <time>2013-12-20T18:12:09Z</time>
      </trkpt>
      <trkpt lat="49.21449" lon="6.8711">
        <ele>331</ele>
        <time>2013-12-20T18:12:21Z</time>
      </trkpt>
      <trkpt lat="49.21442" lon="6.87119">
        <ele>330</ele>
        <time>2013-12-20T18:12:32Z</time>
      </trkpt>
      <trkpt lat="49.21436" lon="6.87127">
        <ele>327</ele>
        <time>2013-12-20T18:12:44Z</time>
      </trkpt>
      <trkpt lat="49.21431" lon="6.87136">
        <ele>326</ele>
        <time>2013-12-20T18:12:53Z</time>
      </trkpt>
      <trkpt lat="49.21427" lon="6.87147">
        <ele>327</ele>
        <time>2013-12-20T18:13:01Z</time>
      </trkpt>
      <trkpt lat="49.21423" lon="6.87159">
        <ele>331</ele>
        <time>2013-12-20T18:13:12Z</time>
      </trkpt>
      <trkpt lat="49.21418" lon="6.87168">
        <ele>332</ele>
        <time>2013-12-20T18:13:17Z</time>
      </trkpt>
      <trkpt lat="49.21415" lon="6.87179">
        <ele>335</ele>
        <time>2013-12-20T18:13:22Z</time>
      </trkpt>
      <trkpt lat="49.21412" lon="6.8719">
        <ele>338</ele>
        <time>2013-12-20T18:13:27Z</time>
      </trkpt>
      <trkpt lat="49.21407" lon="6.87199">
        <ele>334</ele>
        <time>2013-12-20T18:13:39Z</time>
      </trkpt>
      <trkpt lat="49.21402" lon="6.87211">
        <ele>335</ele>
        <time>2013-12-20T18:13:48Z</time>
      </trkpt>
      <trkpt lat="49.21398" lon="6.87221">
        <ele>339</ele>
        <time>2013-12-20T18:13:53Z</time>
      </trkpt>
      <trkpt lat="49.21394" lon="6.87232">
        <ele>343</ele>
        <time>2013-12-20T18:13:59Z</time>
      </trkpt>
      <trkpt lat="49.21391" lon="6.87243">
        <ele>342</ele>
        <time>2013-12-20T18:14:06Z</time>
      </trkpt>
      <trkpt lat="49.21388" lon="6.87256">
        <ele>344</ele>
        <time>2013-12-20T18:14:14Z</time>
      </trkpt>
      <trkpt lat="49.21384" lon="6.87267">
        <ele>343</ele>
        <time>2013-12-20T18:14:23Z</time>
      </trkpt>
      <trkpt lat="49.21381" lon="6.8728">
        <ele>340</ele>
        <time>2013-12-20T18:14:33Z</time>
      </trkpt>
      <trkpt lat="49.21378" lon="6.87292">
        <ele>339</ele>
        <time>2013-12-20T18:14:42Z</time>
      </trkpt>
      <trkpt lat="49.21374" lon="6.87303">
        <ele>341</ele>
        <time>2013-12-20T18:14:48Z</time>
      </trkpt>
      <trkpt lat="49.2137" lon="6.87313">
        <ele>340</ele>
        <time>2013-12-20T18:14:56Z</time>
      </trkpt>
      <trkpt lat="49.21368" lon="6.87326">
        <ele>337</ele>
        <time>2013-12-20T18:15:07Z</time>
      </trkpt>
      <trkpt lat="49.21365" lon="6.87336">
        <ele>340</ele>
        <time>2013-12-20T18:15:13Z</time>
      </trkpt>
      <trkpt lat="49.21358" lon="6.87344">
        <ele>338</ele>
        <time>2013-12-20T18:15:22Z</time>
      </trkpt>
      <trkpt lat="49.21349" lon="6.87343">
        <ele>338</ele>
        <time>2013-12-20T18:15:30Z</time>
      </trkpt>
      <trkpt lat="49.21341" lon="6.87341">
        <ele>339</ele>
        <time>2013-12-20T18:15:38Z</time>
      </trkpt>
      <trkpt lat="49.21333" lon="6.87335">
        <ele>337</ele>
        <time>2013-12-20T18:15:47Z</time>
      </trkpt>
      <trkpt lat="49.21325" lon="6.87329">
        <ele>337</ele>
        <time>2013-12-20T18:15:56Z</time>
      </trkpt>
      <trkpt lat="49.21318" lon="6.87323">
        <ele>336</ele>
        <time>2013-12-20T18:16:03Z</time>
      </trkpt>
      <trkpt lat="49.21311" lon="6.87315">
        <ele>335</ele>
        <time>2013-12-20T18:16:11Z</time>
      </trkpt>
      <trkpt lat="49.21304" lon="6.87308">
        <ele>337</ele>
        <time>2013-12-20T18:17:00Z</time>
      </trkpt>
      <trkpt lat="49.21303" lon="6.87308">
        <ele>337</ele>
        <time>2013-12-20T18:17:57Z</time>
      </trkpt>
      <trkpt lat="49.21303" lon="6.87308">
        <ele>337</ele>
        <time>2013-12-20T18:17:58Z</time>
      </trkpt>
    </trkseg>
  </trk>
</gpx>